WEATHER DATA

YESTERDAY
Time Temp. Dewp. Hum. Wind dir Wind speed Wind gust Bar. 1h Prec. 24h Prec.
00:03 -1.7 -2.6 93 0 0 1026.2 0.0000 0.0000
00:13 -1.8 -2.7 93 0 0 1026.2 0.0000 0.0000
00:23 -1.9 -2.8 93 0 0 1026.2 0.0000 0.0000
00:33 -2.1 -3 93 0 0 1026.3 0.0000 0.0000
00:43 -2.2 -3.2 92 0 0 1026.3 0.0000 0.0000
00:53 -2.4 -3.4 92 0 0 1026.4 0.0000 0.0000
01:02 -2.5 -3.5 92 0 0 1026.4 0.0000 0.0000
01:13 -2.7 -3.7 92 0 0 1026.4 0.0000 0.0000
01:23 -2.8 -3.7 93 0 0 1026.4 0.0000 0.0000
01:33 -2.9 -3.8 93 0 0 1026.4 0.0000 0.0000
01:43 -3 -3.9 93 0 0 1026.4 0.0000 0.0000
01:53 -3.2 -4.1 93 0 0 1026.4 0.0000 0.0000
02:03 -3.2 -4.1 93 0 0 1026.3 0.0000 0.0000
02:13 -3.3 -4.2 93 0 0 1026.3 0.0000 0.0000
02:23 -3.4 -4.3 93 0 0 1026.3 0.0000 0.0000
02:33 -3.5 -4.4 93 0 0 1026.3 0.0000 0.0000
02:43 -3.6 -4.5 93 0 0 1026.3 0.0000 0.0000
02:53 -3.6 -4.3 94 0 0 1026.1 0.0000 0.0000
03:03 -3.7 -4.4 94 0 0 1026 0.0000 0.0000
03:13 -3.8 -4.5 94 0 0 1025.9 0.0000 0.0000
03:23 -3.9 -4.6 94 0 0 1025.9 0.0000 0.0000
03:33 -4 -4.7 94 0 0 1025.8 0.0000 0.0000
03:43 -4.1 -5 93 0 0 1025.8 0.0000 0.0000
03:53 -4.2 -4.9 94 0 0 1025.8 0.0000 0.0000
04:03 -4.2 -4.9 94 0 0 1025.7 0.0000 0.0000
04:13 -4.2 -4.8 95 0 0 1025.7 0.0000 0.0000
04:23 -4.3 -4.9 95 0 0 1025.6 0.0000 0.0000
04:33 -4.3 -4.8 96 0 0 1025.7 0.0000 0.0000
04:43 -4.3 -4.8 96 0 0 1025.7 0.0000 0.0000
04:53 -4.3 -4.9 95 0 0 1025.8 0.0000 0.0000
05:03 -4.4 -5 95 0 0 1025.8 0.0000 0.0000
05:13 -4.4 -5 95 0 0 1025.8 0.0000 0.0000
05:23 -4.4 -4.9 96 0 0 1025.7 0.0000 0.0000
05:33 -4.4 -4.9 96 0 0 1025.6 0.0000 0.0000
05:43 -4.5 -5 96 0 0 1025.6 0.0000 0.0000
05:52 -4.5 -5 96 0 0 1025.5 0.0000 0.0000
06:02 -4.5 -5 96 0 0 1025.5 0.0000 0.0000
06:12 -4.5 -5 96 0 0 1025.4 0.0000 0.0000
06:22 -4.4 -4.9 96 0 0 1025.4 0.0000 0.0000
06:32 -4.3 -4.8 96 0 0 1025.5 0.0000 0.0000
06:43 -4.2 -4.6 97 0 0 1025.6 0.0000 0.0000
06:52 -4.1 -4.5 97 0 0 1025.5 0.0000 0.0000
07:02 -4 -4.4 97 0 0 1025.6 0.0000 0.0000
07:12 -4 -4.4 97 0 0 1025.5 0.0000 0.0000
07:22 -3.9 -4.3 97 0 0 1025.6 0.0000 0.0000
07:32 -3.8 -4 98 0 0 1025.6 0.0000 0.0000
07:48 -3.7 -3.9 98 0 0 1025.8 0.0000 0.0000
07:57 -3.6 -3.8 98 0 0 1025.8 0.0000 0.0000
08:07 -3.5 -3.7 98 0 0 1025.9 0.0000 0.0000
08:17 -3.4 -3.6 98 0 0 1025.9 0.0000 0.0000
08:27 -3.3 -3.5 98 0 0 1025.8 0.0000 0.0000
08:37 -3.2 -3.3 99 0 0 1025.8 0.0000 0.0000
08:47 -3 -3.1 99 0 0 1025.7 0.0000 0.0000
08:58 -2.8 -2.9 99 0 0 1025.8 0.0000 0.0000
09:07 -2.6 -2.7 99 0 0 1025.7 0.0000 0.0000
09:17 -2.5 -2.6 99 0 0 1025.8 0.0000 0.0000
09:27 -2.3 -2.4 99 0 0 1025.8 0.0000 0.0000
09:37 -2.1 -2.2 99 0 0 1025.8 0.0000 0.0000
09:47 -1.9 -2 99 0 0 1025.6 0.0000 0.0000
09:57 -1.7 -1.8 99 0 0 1025.6 0.0000 0.0000
10:08 -1.3 -1.3 100 0 0 1025.6 0.0000 0.0000
10:17 -0.8 -0.8 100 0 0 1025.6 0.0000 0.0000
10:27 -0.2 -0.2 100 0 0 1025.4 0.0000 0.0000
10:38 0.7 0.7 100 0 0 1025.3 0.0000 0.0000
10:48 1.6 1.5 99 0 0 1025.2 0.0000 0.0000
10:57 2.3 1.7 96 0 0 1025.2 0.0000 0.0000
11:07 3 2.1 94 0 0 1025 0.0000 0.0000
11:18 3.6 2.4 92 0 0 1025 0.0000 0.0000
11:27 4.1 2.6 90 0 0 1024.7 0.0000 0.0000
11:37 4.6 2.8 88 0 0 1024.6 0.0000 0.0000
11:48 5.1 3 86 0 0 1024.5 0.0000 0.0000
11:58 5.5 3.2 85 0 0 1024.4 0.0000 0.0000
12:07 5.9 3.2 83 0 0 1024.3 0.0000 0.0000
12:18 6.4 3.6 82 0 0 1024.1 0.0000 0.0000
12:28 6.9 3.7 80 0 0 1023.9 0.0000 0.0000
12:37 7.4 4 79 0 0 1023.8 0.0000 0.0000
12:47 7.9 4.3 78 0 0 1023.7 0.0000 0.0000
12:58 8.5 4.5 76 0 0 1023.4 0.0000 0.0000
13:08 9 4.4 73 0 0 1023.3 0.0000 0.0000
13:17 9.4 4.4 71 0 0 1023.2 0.0000 0.0000
13:28 9.8 4.6 70 0 0 1023 0.0000 0.0000
13:38 10.2 4.8 69 0 0 1022.8 0.0000 0.0000
13:47 10.6 4.9 68 0 0 1022.7 0.0000 0.0000
13:58 10.8 4.9 67 0 0 1022.5 0.0000 0.0000
14:08 11 4.7 65 0 0 1022.6 0.0000 0.0000
14:18 11.2 4.7 64 0 0 1022.4 0.0000 0.0000
14:27 11.4 4.8 64 0 0 1022.4 0.0000 0.0000
14:38 11.5 4.5 62 0 0 1022.3 0.0000 0.0000
14:48 11.5 4.5 62 0 0 1022.1 0.0000 0.0000
14:58 11.6 4.6 62 0 0 1022.1 0.0000 0.0000
15:08 11.7 4.4 61 0 0 1022 0.0000 0.0000
15:18 11.8 4.5 61 0 0 1022.1 0.0000 0.0000
15:28 11.8 4.5 61 0 0 1022.1 0.0000 0.0000
15:37 11.9 4.4 60 0 0 1022 0.0000 0.0000
15:48 11.9 4.2 59 0 0 1022 0.0000 0.0000
15:58 11.7 4 59 0 0 1021.9 0.0000 0.0000
16:08 11.3 3.8 60 0 0 1021.8 0.0000 0.0000
16:18 10.9 3.9 62 0 0 1021.7 0.0000 0.0000
16:28 10.4 3.7 63 0 0 1021.7 0.0000 0.0000
16:38 9.9 3.9 66 0 0 1021.6 0.0000 0.0000
16:48 9.2 3.6 68 0 0 1021.4 0.0000 0.0000
16:58 8.7 3.3 69 0 0 1021.3 0.0000 0.0000
17:08 8.1 3.2 71 0 0 1021.2 0.0000 0.0000
17:18 7.6 2.9 72 0 0 1021.2 0.0000 0.0000
17:28 7.1 2.6 73 0 0 1021.2 0.0000 0.0000
17:43 6.3 2.2 75 0 0 1021.3 0.0000 0.0000
17:53 5.8 2.1 77 0 0 1021.3 0.0000 0.0000
18:03 5.4 1.9 78 0 0 1021.4 0.0000 0.0000
18:15 4.9 1.6 79 0 0 1021.7 0.0000 0.0000
18:24 4.6 1.5 80 0 0 1021.7 0.0000 0.0000
18:34 4.2 1.1 80 0 0 1021.4 0.0000 0.0000
18:50 3.7 0.9 82 0 0 1021.4 0.0000 0.0000
18:59 3.4 0.8 83 0 0 1021.4 0.0000 0.0000
19:09 3.1 0.7 84 0 0 1021.4 0.0000 0.0000
19:15 2.9 0.5 84 0 0 1021.3 0.0000 0.0000
19:25 2.6 0.2 84 0 0 1021.3 0.0000 0.0000
19:35 2.3 0 85 0 0 1021.2 0.0000 0.0000
19:45 2.1 0 86 0 0 1021.3 0.0000 0.0000
19:55 1.9 -0.2 86 0 0 1021.3 0.0000 0.0000
20:05 1.6 -0.4 86 0 0 1021.3 0.0000 0.0000
20:15 1.4 -0.5 87 0 0 1021.3 0.0000 0.0000
20:25 1.1 -0.7 87 0 0 1021.3 0.0000 0.0000
20:35 0.9 -0.9 87 0 0 1021.3 0.0000 0.0000
20:45 0.6 -1 88 0 0 1021.3 0.0000 0.0000
20:55 0.5 -1 89 0 0 1021.4 0.0000 0.0000
21:05 0.4 -1.1 89 0 0 1021.4 0.0000 0.0000
21:15 0.2 -1.1 90 0 0 1021.6
21:24 0 -1.3 90 0 0 1021.6 0.0000 0.0000
21:34 -0.1 -1.4 90 0 0 1021.4 0.0000 0.0000
21:44 -0.2 -1.3 91 0 0 1021.6 0.0000 0.0000
21:54 -0.3 -1.6 90 0 0 1021.7 0.0000 0.0000
22:11 -0.6 -1.7 91 0 0 1021.6 0.0000 0.0000
22:22 -0.7 -1.8 91 0 0 1021.6 0.0000 0.0000
22:31 -0.9 -2 91 0 0 1021.6 0.0000 0.0000
22:41 -1 -2 92 0 0 1021.6 0.0000 0.0000
22:52 -1.1 -2.1 92 0 0 1021.4 0.0000 0.0000
23:02 -1.2 -2.2 92 0 0 1021.6 0.0000 0.0000
23:11 -1.3 -2.3 92 0 0 1021.7 0.0000 0.0000
23:21 -1.5 -2.5 92 0 0 1021.6 0.0000 0.0000
23:32 -1.6 -2.6 92 0 0 1021.6 0.0000 0.0000
23:41 -1.7 -2.6 93 0 0 1021.6 0.0000 0.0000
23:51 -1.8 -2.8 92 0 0 1021.6 0.0000 0.0000

DAY STATISTIC

2019-02-18
TEMPERATURE
AVERAGE
1.4
HIGH
11.9
15:37
LOW
-4.5
05:43
PRESSURE
AVERAGE
1023.9
HIGH
1026.4
00:53
LOW
1021.2
17:08
DEWPOINT
AVERAGE
-0.8
HIGH
4.9
13:47
LOW
-5.0
03:43
HUMIDITY
AVERAGE
87
HIGH
100
10:08
LOW
59
15:48
WIND SPEED
AVERAGE
0.0
HIGH
0.0
16:43
WIND GUST
AVERAGE
0.0
HIGH
0.0
16:43
WIND DIRECTION
PREVAILING
%
PRECIPITATION
RAIN HOUR
0.0
RAIN DAY
0.0
TEMPERATURE (°C)
LOW
-4.5
HIGH
11.9
AVERAGE
1.4
PRESSURE (hpa)
LOW
1021.2
HIGH
1026.4
AVERAGE
1023.9
DEVICE